Governador Jorge Teixeira, Brazil
Current Conditions -  °F | °C
As of 11:00 PM on Friday 24 Oct 2014 (Local Time) from SBPV Reporting Station
Thunderstorm Thunderstorm  
Wind Chill: 72°   Ceiling: 7000
Heat Index: 72°   Visibility: 3mi
Dew Point: 70°   Wind: 3mph
Humidity: 94%   Direction: 90°E
Pressure: NA   Gusts: NA
Location:  10.53°S, 62.64°W
Report Text: SBPV 250300Z 09003KT 5000 -TSRA SCT006 FEW020CB OVC070 22/21 Q1012
Loading
Personal Weather Stations






























Interactive Weather Map
Tropical Storm Tracking
New forecast layout! Learn more

10-Day Weather Forecast

Advertisements
Track Severe Weather on mobile